createdAt,value
2023-08-04T00:00:25.387Z,13.92
2023-08-04T00:02:52.018Z,14.02
2023-08-04T00:05:18.541Z,14.08
2023-08-04T00:07:45.188Z,14.10
2023-08-04T00:10:12.148Z,14.12
2023-08-04T00:12:38.664Z,14.04
2023-08-04T00:15:07.160Z,14.05
2023-08-04T00:17:36.578Z,14.12
2023-08-04T00:20:04.358Z,14.11
2023-08-04T00:22:30.889Z,14.10
2023-08-04T00:24:57.431Z,14.06
2023-08-04T00:27:23.967Z,14.04
2023-08-04T00:29:51.646Z,14.02
2023-08-04T00:32:18.270Z,14.04
2023-08-04T00:34:44.780Z,14.05
2023-08-04T00:37:11.268Z,14.05
2023-08-04T00:39:37.868Z,14.01
2023-08-04T00:42:04.725Z,14.07
2023-08-04T00:44:31.315Z,14.13
2023-08-04T00:46:59.157Z,14.15
2023-08-04T00:49:25.727Z,14.21
2023-08-04T00:51:52.475Z,14.26
2023-08-04T00:54:19.055Z,14.13
2023-08-04T00:56:46.612Z,14.16
2023-08-04T00:59:13.217Z,14.10
2023-08-04T01:01:39.780Z,14.05
2023-08-04T01:04:06.442Z,14.06
2023-08-04T01:06:44.608Z,14.08
2023-08-04T01:09:29.201Z,14.03
2023-08-04T01:12:15.444Z,14.17
2023-08-04T01:14:44.053Z,14.03
2023-08-04T01:17:27.873Z,13.96
2023-08-04T01:19:55.103Z,13.97
2023-08-04T01:22:22.540Z,13.87
2023-08-04T01:24:50.266Z,13.80
2023-08-04T01:27:22.530Z,13.85
2023-08-04T01:29:49.319Z,13.89
2023-08-04T01:32:15.841Z,13.94
2023-08-04T01:34:45.910Z,13.96
2023-08-04T01:37:12.654Z,14.02
2023-08-04T01:39:39.306Z,14.02
2023-08-04T01:42:06.419Z,14.03
2023-08-04T01:44:32.992Z,14.03
2023-08-04T01:46:59.640Z,13.94
2023-08-04T01:49:26.096Z,14.03
2023-08-04T01:51:52.609Z,14.05
2023-08-04T01:54:19.618Z,14.07
2023-08-04T01:56:46.105Z,14.07
2023-08-04T01:59:12.569Z,14.13
2023-08-04T02:01:39.054Z,14.12
2023-08-04T02:04:05.887Z,14.17
2023-08-04T02:06:32.420Z,14.07
2023-08-04T02:08:59.429Z,14.01
2023-08-04T02:11:26.706Z,13.99
2023-08-04T02:13:53.296Z,14.07
2023-08-04T02:16:19.871Z,14.11
2023-08-04T02:18:46.382Z,14.11
2023-08-04T02:21:12.843Z,14.02
2023-08-04T02:23:40.403Z,13.96
2023-08-04T02:26:06.898Z,13.90
2023-08-04T02:28:33.539Z,13.91
2023-08-04T02:31:02.001Z,13.98
2023-08-04T02:33:29.521Z,13.89
2023-08-04T02:36:00.532Z,13.80
2023-08-04T02:38:27.415Z,13.91
2023-08-04T02:40:54.022Z,14.01
2023-08-04T02:43:20.516Z,13.98
2023-08-04T02:45:51.510Z,14.01
2023-08-04T02:48:18.045Z,13.92
2023-08-04T02:50:44.882Z,13.83
2023-08-04T02:53:11.511Z,13.83
2023-08-04T02:55:38.234Z,13.40
2023-08-04T02:58:04.796Z,13.81
2023-08-04T03:00:31.631Z,13.81
2023-08-04T03:02:59.754Z,13.74
2023-08-04T03:05:26.347Z,13.85
2023-08-04T03:07:52.777Z,13.90
2023-08-04T03:10:19.304Z,13.82
2023-08-04T03:12:45.782Z,13.66
2023-08-04T03:15:12.281Z,13.83
2023-08-04T03:17:38.815Z,13.90
2023-08-04T03:20:05.803Z,13.98
2023-08-04T03:22:32.291Z,13.94
2023-08-04T03:24:58.760Z,13.95
2023-08-04T03:27:25.273Z,13.89
2023-08-04T03:29:51.814Z,13.95
2023-08-04T03:32:18.306Z,13.90
2023-08-04T03:34:44.862Z,13.85
2023-08-04T03:37:11.342Z,13.85
2023-08-04T03:39:37.796Z,13.87
2023-08-04T03:42:04.644Z,13.89
2023-08-04T03:44:31.170Z,13.84
2023-08-04T03:46:57.708Z,13.81
2023-08-04T03:49:24.362Z,13.78
2023-08-04T03:51:50.933Z,13.86
2023-08-04T03:54:17.416Z,13.88
2023-08-04T03:56:43.908Z,13.97
2023-08-04T03:59:13.025Z,13.93
2023-08-04T04:01:40.186Z,13.98
2023-08-04T04:04:06.768Z,14.04
2023-08-04T04:06:33.282Z,14.04
2023-08-04T04:08:59.743Z,14.03
2023-08-04T04:11:26.197Z,14.12
2023-08-04T04:13:52.643Z,14.13
2023-08-04T04:16:19.350Z,14.10
2023-08-04T04:18:45.844Z,14.16
2023-08-04T04:21:12.343Z,14.17
2023-08-04T04:23:38.800Z,14.00
2023-08-04T04:26:08.432Z,14.06
2023-08-04T04:28:35.113Z,14.10
2023-08-04T04:31:04.503Z,14.16
2023-08-04T04:33:31.437Z,14.11
2023-08-04T04:35:57.993Z,14.07
2023-08-04T04:38:29.041Z,14.05
2023-08-04T04:41:01.432Z,14.09
2023-08-04T04:43:28.745Z,14.09
2023-08-04T04:45:55.866Z,14.05
2023-08-04T04:48:23.570Z,14.00
2023-08-04T04:50:53.201Z,14.00
2023-08-04T04:53:19.944Z,14.01
2023-08-04T04:55:46.421Z,13.81
2023-08-04T04:58:15.952Z,14.07
2023-08-04T05:00:43.204Z,14.09
2023-08-04T05:03:11.944Z,14.12
2023-08-04T05:05:39.245Z,14.18
2023-08-04T05:08:05.853Z,14.15
2023-08-04T05:10:32.340Z,14.04
2023-08-04T05:12:58.914Z,14.02
2023-08-04T05:15:25.451Z,13.92
2023-08-04T05:17:52.074Z,13.79
2023-08-04T05:20:18.703Z,13.77
2023-08-04T05:22:45.188Z,13.71
2023-08-04T05:25:12.078Z,13.66
2023-08-04T05:27:38.752Z,13.64
2023-08-04T05:30:06.178Z,13.58
2023-08-04T05:32:32.820Z,13.27
2023-08-04T05:34:59.294Z,13.20
2023-08-04T05:37:25.793Z,13.31
2023-08-04T05:39:52.312Z,13.42
2023-08-04T05:42:18.772Z,13.36
2023-08-04T05:44:45.596Z,13.42
2023-08-04T05:47:12.354Z,13.40
2023-08-04T05:49:38.912Z,13.39
2023-08-04T05:52:05.588Z,13.31
2023-08-04T05:54:32.094Z,13.29
2023-08-04T05:56:58.547Z,13.17
2023-08-04T05:59:25.015Z,13.09
2023-08-04T06:01:54.927Z,13.23
2023-08-04T06:04:22.556Z,13.29
2023-08-04T06:06:49.265Z,13.32
2023-08-04T06:09:15.737Z,13.34
2023-08-04T06:11:42.950Z,13.27
2023-08-04T06:14:09.462Z,13.34
2023-08-04T06:16:35.976Z,13.34
2023-08-04T06:19:02.512Z,13.41
2023-08-04T06:21:29.630Z,13.55
2023-08-04T06:23:56.164Z,13.66
2023-08-04T06:26:24.507Z,13.66
2023-08-04T06:28:51.385Z,13.53
2023-08-04T06:31:17.912Z,13.62
2023-08-04T06:33:44.546Z,13.81
2023-08-04T06:36:11.026Z,13.85
2023-08-04T06:38:37.706Z,13.75
2023-08-04T06:41:04.243Z,13.68
2023-08-04T06:43:30.838Z,13.85
2023-08-04T06:45:57.292Z,13.79
2023-08-04T06:48:25.250Z,13.78
2023-08-04T06:50:52.829Z,13.41
2023-08-04T06:53:19.317Z,13.39
2023-08-04T06:55:47.436Z,13.29
2023-08-04T06:58:15.030Z,13.12
2023-08-04T07:00:41.592Z,13.16
2023-08-04T07:03:09.462Z,13.16
2023-08-04T07:05:36.088Z,13.03
2023-08-04T07:08:02.768Z,13.04
2023-08-04T07:10:29.318Z,12.97
2023-08-04T07:12:55.757Z,12.65
2023-08-04T07:15:22.339Z,12.55
2023-08-04T07:17:48.915Z,12.64
2023-08-04T07:20:15.636Z,12.81
2023-08-04T07:22:42.306Z,12.65
2023-08-04T07:25:09.086Z,12.46
2023-08-04T07:27:35.567Z,12.46
2023-08-04T07:30:02.111Z,12.25
2023-08-04T07:32:28.606Z,12.27
2023-08-04T07:34:55.170Z,12.30
2023-08-04T07:37:21.673Z,12.24
2023-08-04T07:39:48.150Z,12.27
2023-08-04T07:42:14.637Z,12.30
2023-08-04T07:44:41.113Z,12.10
2023-08-04T07:47:07.595Z,12.07
2023-08-04T07:49:34.104Z,12.16
2023-08-04T07:52:00.634Z,12.20
2023-08-04T07:54:27.157Z,12.09
2023-08-04T07:56:53.661Z,12.28
2023-08-04T07:59:20.230Z,12.33
2023-08-04T08:01:48.023Z,12.33
2023-08-04T08:04:15.687Z,12.32
2023-08-04T08:06:42.514Z,12.39
2023-08-04T08:09:09.332Z,12.38
2023-08-04T08:11:35.905Z,12.36
2023-08-04T08:14:02.361Z,12.40
2023-08-04T08:16:28.927Z,12.34
2023-08-04T08:18:55.524Z,12.40
2023-08-04T08:21:22.153Z,12.45
2023-08-04T08:23:48.661Z,12.58
2023-08-04T08:26:15.187Z,12.63
2023-08-04T08:28:41.620Z,12.85
2023-08-04T08:31:08.168Z,13.10
2023-08-04T08:33:34.694Z,13.14
2023-08-04T08:36:01.183Z,13.30
2023-08-04T08:38:27.659Z,13.52
2023-08-04T08:40:54.259Z,13.67
2023-08-04T08:43:20.721Z,13.73
2023-08-04T08:45:47.457Z,13.91
2023-08-04T08:48:15.049Z,14.01
2023-08-04T08:50:44.861Z,14.11
2023-08-04T08:53:13.973Z,13.96
2023-08-04T08:55:43.901Z,14.09
2023-08-04T08:58:10.622Z,14.13
2023-08-04T09:00:37.703Z,14.25
2023-08-04T09:03:06.322Z,14.31
2023-08-04T09:05:34.556Z,14.26
2023-08-04T09:08:01.484Z,14.37
2023-08-04T09:10:28.007Z,14.45
2023-08-04T09:12:56.160Z,14.33
2023-08-04T09:15:34.395Z,14.05
2023-08-04T09:18:01.665Z,14.00
2023-08-04T09:20:30.148Z,13.86
2023-08-04T09:22:57.250Z,13.86
2023-08-04T09:25:23.759Z,13.73
2023-08-04T09:27:53.345Z,13.71
2023-08-04T09:30:20.002Z,13.86
2023-08-04T09:32:48.025Z,13.96
2023-08-04T09:35:15.482Z,14.09
2023-08-04T09:37:42.469Z,14.25
2023-08-04T09:40:18.087Z,14.39
2023-08-04T09:42:45.617Z,14.38
2023-08-04T09:45:19.527Z,14.48
2023-08-04T09:47:51.772Z,14.47
2023-08-04T09:50:19.926Z,14.40
2023-08-04T09:52:46.777Z,14.31
2023-08-04T09:55:13.430Z,13.99
2023-08-04T09:57:40.722Z,14.01
2023-08-04T10:00:09.734Z,13.80
2023-08-04T10:02:36.692Z,13.91
2023-08-04T10:05:04.953Z,13.99
2023-08-04T10:07:32.524Z,13.88
2023-08-04T10:10:01.745Z,13.67
2023-08-04T10:12:30.111Z,13.69
2023-08-04T10:14:57.276Z,13.47
2023-08-04T10:17:24.193Z,13.61
2023-08-04T10:20:03.700Z,13.72
2023-08-04T10:22:30.474Z,13.86
2023-08-04T10:24:57.083Z,14.01
2023-08-04T10:27:23.668Z,14.28
2023-08-04T10:30:09.283Z,14.29
2023-08-04T10:32:37.559Z,14.52
2023-08-04T10:35:06.551Z,14.36
2023-08-04T10:37:46.028Z,14.61
2023-08-04T10:40:13.174Z,14.75
2023-08-04T10:42:58.479Z,14.96
2023-08-04T10:45:24.950Z,14.98
2023-08-04T10:50:26.203Z,15.03
2023-08-04T10:52:52.817Z,15.10
2023-08-04T10:55:19.401Z,14.90
2023-08-04T10:57:45.883Z,15.12
2023-08-04T11:00:13.001Z,14.92
2023-08-04T11:02:39.780Z,15.06
2023-08-04T11:05:09.902Z,15.09
2023-08-04T11:07:37.039Z,15.22
2023-08-04T11:10:06.211Z,15.41
2023-08-04T11:12:34.391Z,15.48
2023-08-04T11:15:01.514Z,15.59
2023-08-04T11:17:28.515Z,15.58
2023-08-04T11:19:55.158Z,15.65
2023-08-04T11:22:23.477Z,15.70
2023-08-04T11:24:52.042Z,15.73
2023-08-04T11:27:19.580Z,15.56
2023-08-04T11:29:52.796Z,15.61
2023-08-04T11:32:23.569Z,15.61
2023-08-04T11:34:52.909Z,15.66
2023-08-04T11:37:22.790Z,15.67
2023-08-04T11:39:49.872Z,16.01
2023-08-04T11:42:16.678Z,16.25
2023-08-04T11:44:44.395Z,16.44
2023-08-04T11:47:13.344Z,16.51
2023-08-04T11:49:41.329Z,16.40
2023-08-04T11:52:12.060Z,16.62
2023-08-04T11:54:53.119Z,16.71
2023-08-04T11:57:19.942Z,16.44
2023-08-04T11:59:53.909Z,16.64
2023-08-04T12:02:20.645Z,16.61
2023-08-04T12:04:47.612Z,16.71
2023-08-04T12:07:16.873Z,16.91
2023-08-04T12:09:47.172Z,16.73
2023-08-04T12:12:13.673Z,16.77
2023-08-04T12:14:55.269Z,16.91
2023-08-04T12:17:37.387Z,17.04
2023-08-04T12:20:05.863Z,17.23
2023-08-04T12:22:36.565Z,17.11
2023-08-04T12:25:04.864Z,17.03
2023-08-04T12:27:31.817Z,17.12
2023-08-04T12:29:58.339Z,16.96
2023-08-04T12:32:25.149Z,17.22
2023-08-04T12:34:51.899Z,17.29
2023-08-04T12:37:18.438Z,17.35
2023-08-04T12:39:48.045Z,17.41
2023-08-04T12:42:14.554Z,17.18
2023-08-04T12:44:41.005Z,17.39
2023-08-04T12:47:11.579Z,17.27
2023-08-04T12:49:38.336Z,17.16
2023-08-04T12:52:05.192Z,17.01
2023-08-04T12:54:31.814Z,16.90
2023-08-04T12:56:58.296Z,16.92
2023-08-04T12:59:24.804Z,16.96
2023-08-04T13:01:51.708Z,16.75
2023-08-04T13:04:18.410Z,16.70
2023-08-04T13:06:44.975Z,16.86
2023-08-04T13:09:11.461Z,16.82
2023-08-04T13:11:37.961Z,16.72
2023-08-04T13:14:04.536Z,16.72
2023-08-04T13:16:31.019Z,16.51
2023-08-04T13:18:57.546Z,16.75
2023-08-04T13:21:24.061Z,16.41
2023-08-04T13:23:50.545Z,16.32
2023-08-04T13:26:17.084Z,16.25
2023-08-04T13:28:43.724Z,16.13
2023-08-04T13:31:13.240Z,16.09
2023-08-04T13:33:39.925Z,16.16
2023-08-04T13:36:06.421Z,15.88
2023-08-04T13:38:32.885Z,16.03
2023-08-04T13:40:59.407Z,16.19
2023-08-04T13:43:27.107Z,16.15
2023-08-04T13:45:53.765Z,15.96
2023-08-04T13:48:20.307Z,16.00
2023-08-04T13:50:46.800Z,16.13
2023-08-04T13:53:13.729Z,16.30
2023-08-04T13:55:41.137Z,16.55
2023-08-04T13:58:07.706Z,16.69
2023-08-04T14:00:34.245Z,16.64
2023-08-04T14:03:00.789Z,16.69
2023-08-04T14:05:27.366Z,16.73
2023-08-04T14:07:54.483Z,16.45
2023-08-04T14:10:22.478Z,16.32
2023-08-04T14:12:49.045Z,16.54
2023-08-04T14:15:15.551Z,16.75
2023-08-04T14:17:42.150Z,16.62
2023-08-04T14:20:14.460Z,16.59
2023-08-04T14:22:41.102Z,16.82
2023-08-04T14:25:08.060Z,17.12
2023-08-04T14:27:34.567Z,17.35
2023-08-04T14:30:01.840Z,17.57
2023-08-04T14:32:29.016Z,17.56
2023-08-04T14:34:55.655Z,17.61
2023-08-04T14:37:22.171Z,17.78
2023-08-04T14:39:50.672Z,17.71
2023-08-04T14:42:19.042Z,17.87
2023-08-04T14:44:45.648Z,17.87
2023-08-04T14:47:12.401Z,17.91
2023-08-04T14:49:39.046Z,17.71
2023-08-04T14:52:06.099Z,17.89
2023-08-04T14:54:33.341Z,18.03
2023-08-04T14:56:59.917Z,18.06
2023-08-04T14:59:26.405Z,18.03
2023-08-04T15:01:53.589Z,18.01
2023-08-04T15:04:20.107Z,17.91
2023-08-04T15:06:46.586Z,17.95
2023-08-04T15:09:13.086Z,17.97
2023-08-04T15:11:39.572Z,18.00
2023-08-04T15:14:07.134Z,17.82
2023-08-04T15:16:33.921Z,17.63
2023-08-04T15:19:00.569Z,17.74
2023-08-04T15:21:27.022Z,17.80
2023-08-04T15:23:53.690Z,17.62
2023-08-04T15:26:20.335Z,17.74
2023-08-04T15:28:52.961Z,17.76
2023-08-04T15:31:19.889Z,17.67
2023-08-04T15:33:46.411Z,17.42
2023-08-04T15:36:12.944Z,17.32
2023-08-04T15:38:39.650Z,17.19
2023-08-04T15:41:08.626Z,17.17
2023-08-04T15:43:38.265Z,17.37
2023-08-04T15:46:05.835Z,17.56
2023-08-04T15:48:34.077Z,17.40
2023-08-04T15:51:01.092Z,17.33
2023-08-04T15:53:28.275Z,17.26
2023-08-04T15:55:56.774Z,17.20
2023-08-04T15:58:24.342Z,17.12
2023-08-04T16:00:50.893Z,17.28
2023-08-04T16:03:17.439Z,17.25
2023-08-04T16:05:45.551Z,17.09
2023-08-04T16:08:12.059Z,17.32
2023-08-04T16:10:38.734Z,17.46
2023-08-04T16:13:05.193Z,17.41
2023-08-04T16:15:31.960Z,17.51
2023-08-04T16:17:58.571Z,17.58
2023-08-04T16:20:25.059Z,17.43
2023-08-04T16:22:51.522Z,17.37
2023-08-04T16:25:18.160Z,17.36
2023-08-04T16:27:44.677Z,17.36
2023-08-04T16:30:11.748Z,17.43
2023-08-04T16:32:38.467Z,17.49
2023-08-04T16:35:05.626Z,17.36
2023-08-04T16:37:32.113Z,17.28
2023-08-04T16:39:58.675Z,17.27
2023-08-04T16:42:25.109Z,17.29
2023-08-04T16:44:52.135Z,17.29
2023-08-04T16:47:19.477Z,17.24
2023-08-04T16:49:46.020Z,17.18
2023-08-04T16:52:12.523Z,17.22
2023-08-04T16:54:39.081Z,17.23
2023-08-04T16:57:05.851Z,17.32
2023-08-04T16:59:32.489Z,17.38
2023-08-04T17:01:59.287Z,17.38
2023-08-04T17:04:25.842Z,17.35
2023-08-04T17:06:52.441Z,17.44
2023-08-04T17:09:19.365Z,17.54
2023-08-04T17:11:45.989Z,17.53
2023-08-04T17:14:16.509Z,17.70
2023-08-04T17:16:43.371Z,17.79
2023-08-04T17:19:10.079Z,17.85
2023-08-04T17:21:36.746Z,17.94
2023-08-04T17:24:03.588Z,18.01
2023-08-04T17:26:30.295Z,18.03
2023-08-04T17:28:56.770Z,17.98
2023-08-04T17:31:23.629Z,17.92
2023-08-04T17:33:50.187Z,17.97
2023-08-04T17:36:16.901Z,17.94
2023-08-04T17:38:43.425Z,17.93
2023-08-04T17:41:09.942Z,17.86
2023-08-04T17:43:36.405Z,17.77
2023-08-04T17:46:02.996Z,17.79
2023-08-04T17:48:29.605Z,17.77
2023-08-04T17:50:59.093Z,17.77
2023-08-04T17:53:25.899Z,17.69
2023-08-04T17:55:52.497Z,17.65
2023-08-04T17:58:19.435Z,17.67
2023-08-04T18:00:46.798Z,17.62
2023-08-04T18:03:14.036Z,17.58
2023-08-04T18:05:41.812Z,17.54
2023-08-04T18:08:09.481Z,17.46
2023-08-04T18:10:43.449Z,17.44
2023-08-04T18:13:10.981Z,17.42
2023-08-04T18:15:38.817Z,17.39
2023-08-04T18:18:06.079Z,17.30
2023-08-04T18:20:34.109Z,17.25
2023-08-04T18:23:00.696Z,17.17
2023-08-04T18:25:27.489Z,17.14
2023-08-04T18:27:54.168Z,17.10
2023-08-04T18:30:20.726Z,17.00
2023-08-04T18:32:47.642Z,16.95
2023-08-04T18:35:14.296Z,16.84
2023-08-04T18:37:40.760Z,16.82
2023-08-04T18:40:08.366Z,16.77
2023-08-04T18:42:42.203Z,16.63
2023-08-04T18:45:13.205Z,16.53
2023-08-04T18:47:43.669Z,16.43
2023-08-04T18:50:10.534Z,16.31
2023-08-04T18:52:37.776Z,16.39
2023-08-04T18:55:05.422Z,16.33
2023-08-04T18:57:31.938Z,16.27
2023-08-04T18:59:58.447Z,16.24
2023-08-04T19:02:24.923Z,16.17
2023-08-04T19:04:51.642Z,16.17
2023-08-04T19:07:18.166Z,16.18
2023-08-04T19:09:45.125Z,16.18
2023-08-04T19:12:11.632Z,16.16
2023-08-04T19:14:38.128Z,16.12
2023-08-04T19:17:06.129Z,16.09
2023-08-04T19:19:33.805Z,15.97
2023-08-04T19:22:01.290Z,15.76
2023-08-04T19:24:28.328Z,15.66
2023-08-04T19:26:54.958Z,15.50
2023-08-04T19:29:21.636Z,15.61
2023-08-04T19:31:48.220Z,15.65
2023-08-04T19:34:16.211Z,15.45
2023-08-04T19:36:44.003Z,15.58
2023-08-04T19:39:10.571Z,15.69
2023-08-04T19:41:37.104Z,15.65
2023-08-04T19:44:03.927Z,15.55
2023-08-04T19:46:30.540Z,15.54
2023-08-04T19:48:57.089Z,15.56
2023-08-04T19:51:23.585Z,15.52
2023-08-04T19:53:50.179Z,15.53
2023-08-04T19:56:16.800Z,15.56
2023-08-04T19:58:43.442Z,15.56
2023-08-04T20:01:11.359Z,15.49
2023-08-04T20:03:38.944Z,15.37
2023-08-04T20:06:06.201Z,15.26
2023-08-04T20:08:33.531Z,15.10
2023-08-04T20:11:01.681Z,15.23
2023-08-04T20:13:28.713Z,15.21
2023-08-04T20:16:05.165Z,15.27
2023-08-04T20:18:32.466Z,15.20
2023-08-04T20:20:58.972Z,15.22
2023-08-04T20:23:25.439Z,15.16
2023-08-04T20:25:52.086Z,15.12
2023-08-04T20:28:18.657Z,15.16
2023-08-04T20:30:50.937Z,15.14
2023-08-04T20:33:17.900Z,15.11
2023-08-04T20:35:55.371Z,14.92
2023-08-04T20:38:22.013Z,14.77
2023-08-04T20:41:01.151Z,14.84
2023-08-04T20:43:27.758Z,14.79
2023-08-04T20:45:54.305Z,14.75
2023-08-04T20:48:21.469Z,14.69
2023-08-04T20:50:51.800Z,14.65
2023-08-04T20:53:19.044Z,14.64
2023-08-04T20:55:50.733Z,14.67
2023-08-04T20:58:19.277Z,14.67
2023-08-04T21:00:47.182Z,14.60
2023-08-04T21:03:13.894Z,14.58
2023-08-04T21:05:41.494Z,14.56
2023-08-04T21:08:08.052Z,14.50
2023-08-04T21:10:34.708Z,14.47
2023-08-04T21:13:01.196Z,14.51
2023-08-04T21:15:29.016Z,14.51
2023-08-04T21:17:55.610Z,14.51
2023-08-04T21:20:22.249Z,14.44
2023-08-04T21:22:48.828Z,14.48
2023-08-04T21:25:15.629Z,14.43
2023-08-04T21:27:42.208Z,14.46
2023-08-04T21:30:09.263Z,14.34
2023-08-04T21:32:35.980Z,14.30
2023-08-04T21:35:03.944Z,14.19
2023-08-04T21:37:30.649Z,14.19
2023-08-04T21:39:57.233Z,14.16
2023-08-04T21:42:23.951Z,14.05
2023-08-04T21:44:54.402Z,14.01
2023-08-04T21:47:21.492Z,14.10
2023-08-04T21:49:48.592Z,14.12
2023-08-04T21:52:15.465Z,13.97
2023-08-04T21:54:42.061Z,13.82
2023-08-04T21:57:08.739Z,13.90
2023-08-04T21:59:35.291Z,13.92
2023-08-04T22:02:01.952Z,13.81
2023-08-04T22:04:28.702Z,13.90
2023-08-04T22:06:55.472Z,13.77
2023-08-04T22:09:21.935Z,13.78
2023-08-04T22:11:48.483Z,13.62
2023-08-04T22:14:17.012Z,13.53
2023-08-04T22:16:43.615Z,13.54
2023-08-04T22:19:10.391Z,13.47
2023-08-04T22:21:37.102Z,13.59
2023-08-04T22:24:03.769Z,13.59
2023-08-04T22:26:30.302Z,13.51
2023-08-04T22:28:57.036Z,13.51
2023-08-04T22:31:23.600Z,13.37
2023-08-04T22:33:50.263Z,13.24
2023-08-04T22:36:16.797Z,13.13
2023-08-04T22:38:43.410Z,13.06
2023-08-04T22:41:09.916Z,13.02
2023-08-04T22:43:36.446Z,13.03
2023-08-04T22:46:04.629Z,12.96
2023-08-04T22:48:32.568Z,12.90
2023-08-04T22:50:59.122Z,12.90
2023-08-04T22:53:25.755Z,12.89
2023-08-04T22:55:52.413Z,12.95
2023-08-04T22:58:18.979Z,13.02
2023-08-04T23:00:45.546Z,13.07
2023-08-04T23:03:12.190Z,13.03
2023-08-04T23:05:38.770Z,13.08
2023-08-04T23:08:05.303Z,13.10
2023-08-04T23:10:31.844Z,13.04
2023-08-04T23:12:58.353Z,13.10
2023-08-04T23:15:24.851Z,13.06
2023-08-04T23:17:51.435Z,13.05
2023-08-04T23:20:18.016Z,13.07
2023-08-04T23:22:44.593Z,12.92
2023-08-04T23:25:11.112Z,12.87
2023-08-04T23:27:37.731Z,12.83
2023-08-04T23:30:05.103Z,12.83
2023-08-04T23:32:31.766Z,12.87
2023-08-04T23:34:58.461Z,12.90
2023-08-04T23:37:24.918Z,12.95
2023-08-04T23:39:51.460Z,12.95
2023-08-04T23:42:17.908Z,12.81
2023-08-04T23:44:44.482Z,12.84
2023-08-04T23:47:11.007Z,12.86
2023-08-04T23:49:37.625Z,12.87
2023-08-04T23:52:04.393Z,12.73
2023-08-04T23:54:30.877Z,12.70
2023-08-04T23:56:57.320Z,12.70
2023-08-04T23:59:23.816Z,12.52
